www.cux-wetter.de
Wetterdaten: Donnerstag, 18.08.2011
Datum Zeit Temp. A. Feuchte A. Luftdruck Regen Wind Richtung Richtung Sonnenschein Solar Taupunkt Windchill Windben
18.08.2011 00:00 15,0 C 80 % 1016,5 hPa 0,0 l/m 0,0 km/h (0 Bft) SW 225 0 min 0 W/m 11,6 C 15,0 C 0,0 km/h (0 Bft)
18.08.2011 00:15 15,0 C 80 % 1016,5 hPa 0,0 l/m 0,0 km/h (0 Bft) SW 225 0 min 0 W/m 11,6 C 15,0 C 0,0 km/h (0 Bft)
18.08.2011 00:30 14,8 C 81 % 1016,5 hPa 0,0 l/m 0,0 km/h (0 Bft) SW 225 0 min 0 W/m 11,6 C 14,8 C 0,0 km/h (0 Bft)
18.08.2011 00:45 14,8 C 82 % 1016,5 hPa 0,0 l/m 0,2 km/h (0 Bft) SW 235 0 min 0 W/m 11,8 C 14,8 C 0,2 km/h (0 Bft)
18.08.2011 01:00 14,9 C 81 % 1015,5 hPa 0,0 l/m 0,0 km/h (0 Bft) SW 235 0 min 0 W/m 11,7 C 14,9 C 0,0 km/h (0 Bft)
18.08.2011 01:15 14,8 C 81 % 1016,5 hPa 0,0 l/m 0,0 km/h (0 Bft) SW 235 0 min 0 W/m 11,6 C 14,8 C 0,0 km/h (0 Bft)
18.08.2011 01:30 14,5 C 81 % 1016,5 hPa 0,0 l/m 0,0 km/h (0 Bft) SW 235 0 min 0 W/m 11,3 C 14,5 C 0,0 km/h (0 Bft)
18.08.2011 01:44 14,4 C 82 % 1016,5 hPa 0,0 l/m 0,0 km/h (0 Bft) SW 235 0 min 0 W/m 11,4 C 14,4 C 0,0 km/h (0 Bft)
18.08.2011 02:00 14,4 C 83 % 1016,5 hPa 0,0 l/m 0,0 km/h (0 Bft) SW 235 0 min 0 W/m 11,5 C 14,4 C 0,0 km/h (0 Bft)
18.08.2011 02:14 14,3 C 83 % 1016,5 hPa 0,0 l/m 0,0 km/h (0 Bft) SW 235 0 min 0 W/m 11,5 C 14,3 C 0,0 km/h (0 Bft)
18.08.2011 02:30 14,2 C 83 % 1016,5 hPa 0,0 l/m 0,0 km/h (0 Bft) SW 235 0 min 0 W/m 11,4 C 14,2 C 0,0 km/h (0 Bft)
18.08.2011 02:45 14,2 C 83 % 1016,5 hPa 0,0 l/m 0,0 km/h (0 Bft) SW 235 0 min 0 W/m 11,4 C 14,2 C 0,0 km/h (0 Bft)
18.08.2011 03:00 14,3 C 83 % 1016,5 hPa 0,0 l/m 0,0 km/h (0 Bft) SW 235 0 min 0 W/m 11,5 C 14,3 C 0,0 km/h (0 Bft)
18.08.2011 03:15 14,4 C 83 % 1016,5 hPa 0,0 l/m 4,2 km/h (1 Bft) N 10 0 min 0 W/m 11,5 C 14,4 C 4,2 km/h (1 Bft)
18.08.2011 03:30 14,5 C 85 % 1016,5 hPa 0,0 l/m 8,7 km/h (2 Bft) N 360 0 min 0 W/m 12,0 C 13,2 C 8,7 km/h (2 Bft)
18.08.2011 03:45 14,8 C 85 % 1016,5 hPa 0,0 l/m 5,6 km/h (2 Bft) N 355 0 min 0 W/m 12,3 C 14,8 C 5,6 km/h (2 Bft)
18.08.2011 04:00 15,0 C 85 % 1016,5 hPa 0,0 l/m 6,4 km/h (2 Bft) N 350 0 min 0 W/m 12,5 C 15,0 C 6,4 km/h (2 Bft)
18.08.2011 04:15 15,0 C 85 % 1016,5 hPa 0,0 l/m 2,7 km/h (1 Bft) N 355 0 min 0 W/m 12,5 C 15,0 C 2,7 km/h (1 Bft)
18.08.2011 04:30 15,0 C 85 % 1016,5 hPa 0,0 l/m 0,6 km/h (0 Bft) N 350 0 min 0 W/m 12,5 C 15,0 C 0,6 km/h (0 Bft)
18.08.2011 04:44 15,0 C 85 % 1016,5 hPa 0,0 l/m 0,2 km/h (0 Bft) N-NW 340 0 min 0 W/m 12,5 C 15,0 C 0,2 km/h (0 Bft)
18.08.2011 04:59 14,8 C 85 % 1016,5 hPa 0,0 l/m 0,0 km/h (0 Bft) N-NW 340 0 min 0 W/m 12,3 C 14,8 C 0,0 km/h (0 Bft)
18.08.2011 05:14 14,8 C 85 % 1016,5 hPa 0,0 l/m 0,0 km/h (0 Bft) N-NW 335 0 min 0 W/m 12,3 C 14,8 C 0,0 km/h (0 Bft)
18.08.2011 05:30 14,8 C 85 % 1016,5 hPa 0,0 l/m 0,0 km/h (0 Bft) N-NW 335 0 min 0 W/m 12,3 C 14,8 C 0,0 km/h (0 Bft)
18.08.2011 05:45 14,6 C 86 % 1015,5 hPa 0,3 l/m 0,0 km/h (0 Bft) N-NW 335 0 min 0 W/m 12,3 C 14,6 C 0,0 km/h (0 Bft)
18.08.2011 06:00 14,4 C 86 % 1015,5 hPa 0,0 l/m 0,0 km/h (0 Bft) N-NW 335 0 min 0 W/m 12,1 C 14,4 C 0,0 km/h (0 Bft)
18.08.2011 06:15 14,4 C 87 % 1015,5 hPa 0,0 l/m 0,0 km/h (0 Bft) N-NW 335 0 min 0 W/m 12,3 C 14,4 C 0,0 km/h (0 Bft)
18.08.2011 06:30 14,4 C 87 % 1016,5 hPa 0,0 l/m 0,0 km/h (0 Bft) N-NW 335 0 min 0 W/m 12,3 C 14,4 C 0,0 km/h (0 Bft)
18.08.2011 06:45 14,4 C 87 % 1016,5 hPa 0,0 l/m 0,0 km/h (0 Bft) N-NW 335 0 min 0 W/m 12,3 C 14,4 C 0,0 km/h (0 Bft)
18.08.2011 07:00 14,5 C 87 % 1016,5 hPa 0,0 l/m 0,0 km/h (0 Bft) N-NW 335 0 min 0 W/m 12,4 C 14,5 C 0,0 km/h (0 Bft)
18.08.2011 07:15 14,5 C 87 % 1016,5 hPa 0,0 l/m 0,0 km/h (0 Bft) N-NW 335 0 min 0 W/m 12,4 C 14,5 C 0,0 km/h (0 Bft)
18.08.2011 07:30 14,8 C 88 % 1016,5 hPa 0,0 l/m 0,0 km/h (0 Bft) N-NW 335 0 min 0 W/m 12,8 C 14,8 C 0,0 km/h (0 Bft)
18.08.2011 07:44 15,0 C 88 % 1016,5 hPa 0,0 l/m 0,0 km/h (0 Bft) N-NW 335 0 min 0 W/m 13,0 C 15,0 C 0,0 km/h (0 Bft)
18.08.2011 07:59 15,0 C 89 % 1016,5 hPa 0,0 l/m 0,0 km/h (0 Bft) N-NW 335 0 min 0 W/m 13,2 C 15,0 C 0,0 km/h (0 Bft)
18.08.2011 08:14 15,2 C 88 % 1016,5 hPa 0,0 l/m 0,0 km/h (0 Bft) N-NW 335 0 min 0 W/m 13,2 C 15,2 C 0,0 km/h (0 Bft)
18.08.2011 08:30 15,5 C 89 % 1016,5 hPa 0,0 l/m 0,0 km/h (0 Bft) N-NW 335 0 min 0 W/m 13,7 C 15,5 C 0,0 km/h (0 Bft)
18.08.2011 08:45 15,6 C 89 % 1016,5 hPa 0,0 l/m 0,0 km/h (0 Bft) N-NW 335 0 min 0 W/m 13,8 C 15,6 C 0,0 km/h (0 Bft)
18.08.2011 09:00 15,7 C 88 % 1016,5 hPa 0,0 l/m 0,0 km/h (0 Bft) N-NW 335 0 min 0 W/m 13,7 C 15,7 C 0,0 km/h (0 Bft)
18.08.2011 09:15 15,7 C 87 % 1016,5 hPa 0,0 l/m 0,0 km/h (0 Bft) N-NW 335 0 min 0 W/m 13,5 C 15,7 C 0,0 km/h (0 Bft)
18.08.2011 09:30 15,9 C 86 % 1016,5 hPa 0,0 l/m 0,7 km/h (0 Bft) N-NW 335 0 min 0 W/m 13,6 C 15,9 C 0,7 km/h (0 Bft)
18.08.2011 09:45 15,9 C 85 % 1016,5 hPa 0,0 l/m 0,0 km/h (0 Bft) N-NW 335 0 min 0 W/m 13,4 C 15,9 C 0,0 km/h (0 Bft)
18.08.2011 10:00 15,9 C 85 % 1016,5 hPa 0,0 l/m 4,9 km/h (1 Bft) N-NW 335 0 min 0 W/m 13,4 C 15,9 C 4,9 km/h (1 Bft)
18.08.2011 10:15 16,7 C 84 % 1016,5 hPa 0,0 l/m 5,2 km/h (1 Bft) N-NW 335 0 min 0 W/m 14,0 C 16,7 C 5,2 km/h (1 Bft)
18.08.2011 10:30 17,3 C 81 % 1016,5 hPa 0,0 l/m 6,9 km/h (2 Bft) N 10 0 min 0 W/m 14,0 C 17,1 C 6,9 km/h (2 Bft)
18.08.2011 10:45 17,7 C 77 % 1016,5 hPa 0,0 l/m 11,8 km/h (2 Bft) N-NO 20 0 min 0 W/m 13,6 C 15,4 C 11,8 km/h (2 Bft)
18.08.2011 10:59 18,2 C 74 % 1016,5 hPa 0,0 l/m 8,5 km/h (2 Bft) N-NO 25 0 min 0 W/m 13,5 C 17,2 C 8,5 km/h (2 Bft)
18.08.2011 11:15 18,7 C 74 % 1016,5 hPa 0,0 l/m 8,6 km/h (2 Bft) N 360 0 min 0 W/m 14,0 C 17,7 C 8,6 km/h (2 Bft)
18.08.2011 11:29 18,7 C 73 % 1016,5 hPa 0,0 l/m 11,5 km/h (2 Bft) N 355 0 min 0 W/m 13,8 C 16,7 C 11,5 km/h (2 Bft)
18.08.2011 11:44 19,1 C 76 % 1016,5 hPa 0,0 l/m 9,9 km/h (2 Bft) N 5 0 min 0 W/m 14,8 C 17,7 C 9,9 km/h (2 Bft)
18.08.2011 12:00 19,2 C 73 % 1016,5 hPa 0,0 l/m 7,0 km/h (2 Bft) N 360 0 min 0 W/m 14,2 C 18,9 C 7,0 km/h (2 Bft)
18.08.2011 12:14 19,0 C 73 % 1016,5 hPa 0,0 l/m 7,8 km/h (2 Bft) N-NO 20 0 min 0 W/m 14,0 C 18,4 C 7,8 km/h (2 Bft)
18.08.2011 12:30 19,0 C 72 % 1016,5 hPa 0,0 l/m 9,4 km/h (2 Bft) NO 55 0 min 0 W/m 13,8 C 17,8 C 9,4 km/h (2 Bft)
18.08.2011 12:45 18,8 C 72 % 1016,5 hPa 0,0 l/m 7,4 km/h (2 Bft) O-NO 65 0 min 0 W/m 13,6 C 18,4 C 7,4 km/h (2 Bft)
18.08.2011 13:00 19,1 C 72 % 1016,5 hPa 0,0 l/m 9,8 km/h (2 Bft) NO 55 0 min 0 W/m 13,9 C 17,7 C 9,8 km/h (2 Bft)
18.08.2011 13:15 19,4 C 71 % 1016,5 hPa 0,0 l/m 8,0 km/h (2 Bft) N-NO 30 0 min 0 W/m 14,0 C 18,7 C 8,0 km/h (2 Bft)
18.08.2011 13:30 19,4 C 71 % 1016,5 hPa 0,0 l/m 7,9 km/h (2 Bft) NO 55 0 min 0 W/m 14,0 C 18,8 C 7,9 km/h (2 Bft)
18.08.2011 13:45 19,1 C 71 % 1016,5 hPa 0,0 l/m 6,8 km/h (2 Bft) N-NO 25 0 min 0 W/m 13,7 C 18,9 C 6,8 km/h (2 Bft)
18.08.2011 14:00 19,0 C 72 % 1015,5 hPa 0,0 l/m 6,8 km/h (2 Bft) N-NO 25 0 min 0 W/m 13,8 C 18,8 C 6,8 km/h (2 Bft)
18.08.2011 14:15 20,0 C 68 % 1015,5 hPa 0,0 l/m 6,8 km/h (2 Bft) N-NO 25 0 min 0 W/m 13,9 C 19,8 C 6,8 km/h (2 Bft)
18.08.2011 14:30 20,3 C 69 % 1015,5 hPa 0,0 l/m 11,5 km/h (2 Bft) NO 45 0 min 0 W/m 14,4 C 18,5 C 11,5 km/h (2 Bft)
18.08.2011 14:45 20,4 C 68 % 1015,5 hPa 0,0 l/m 11,5 km/h (2 Bft) NO 45 0 min 0 W/m 14,3 C 18,6 C 11,5 km/h (2 Bft)
18.08.2011 14:59 20,1 C 69 % 1015,5 hPa 0,0 l/m 5,2 km/h (1 Bft) NO 35 0 min 0 W/m 14,2 C 20,1 C 5,2 km/h (1 Bft)
18.08.2011 15:14 20,0 C 69 % 1015,5 hPa 0,0 l/m 13,6 km/h (3 Bft) N-NO 15 0 min 0 W/m 14,1 C 17,6 C 13,6 km/h (3 Bft)
18.08.2011 15:29 20,1 C 69 % 1015,5 hPa 0,0 l/m 9,3 km/h (2 Bft) NO 45 0 min 0 W/m 14,2 C 19,0 C 9,3 km/h (2 Bft)
18.08.2011 15:45 19,8 C 69 % 1015,5 hPa 0,0 l/m 9,1 km/h (2 Bft) NO 40 0 min 0 W/m 13,9 C 18,7 C 9,1 km/h (2 Bft)
18.08.2011 16:00 19,2 C 70 % 1015,5 hPa 0,0 l/m 12,3 km/h (2 Bft) NO 45 0 min 0 W/m 13,6 C 17,0 C 12,3 km/h (2 Bft)
18.08.2011 16:15 18,8 C 71 % 1014,5 hPa 0,0 l/m 9,8 km/h (2 Bft) NO 35 0 min 0 W/m 13,4 C 17,4 C 9,8 km/h (2 Bft)
18.08.2011 16:30 18,9 C 72 % 1014,5 hPa 0,0 l/m 13,5 km/h (3 Bft) N-NO 20 0 min 0 W/m 13,7 C 16,3 C 13,5 km/h (3 Bft)
18.08.2011 16:45 18,8 C 72 % 1014,5 hPa 0,0 l/m 7,4 km/h (2 Bft) N-NO 20 0 min 0 W/m 13,6 C 18,4 C 7,4 km/h (2 Bft)
18.08.2011 16:59 19,0 C 73 % 1014,5 hPa 0,0 l/m 13,2 km/h (3 Bft) N-NO 25 0 min 0 W/m 14,0 C 16,5 C 13,2 km/h (3 Bft)
18.08.2011 17:15 19,4 C 73 % 1014,5 hPa 0,0 l/m 13,4 km/h (3 Bft) N-NO 30 0 min 0 W/m 14,4 C 16,9 C 13,4 km/h (3 Bft)
18.08.2011 17:29 19,4 C 72 % 1014,5 hPa 0,0 l/m 13,5 km/h (3 Bft) NO 50 0 min 0 W/m 14,2 C 16,9 C 13,5 km/h (3 Bft)
18.08.2011 17:45 19,2 C 73 % 1014,5 hPa 0,0 l/m 13,0 km/h (3 Bft) N-NO 30 0 min 0 W/m 14,2 C 16,8 C 13,0 km/h (3 Bft)
18.08.2011 18:00 18,8 C 74 % 1013,5 hPa 0,0 l/m 11,1 km/h (2 Bft) NO 55 0 min 0 W/m 14,1 C 16,9 C 11,1 km/h (2 Bft)
18.08.2011 18:15 18,5 C 75 % 1013,5 hPa 0,0 l/m 13,8 km/h (3 Bft) NO 35 0 min 0 W/m 14,0 C 15,8 C 13,8 km/h (3 Bft)
18.08.2011 18:30 18,3 C 76 % 1013,5 hPa 0,0 l/m 13,8 km/h (3 Bft) N-NO 30 0 min 0 W/m 14,0 C 15,5 C 13,8 km/h (3 Bft)
18.08.2011 18:45 18,2 C 77 % 1013,5 hPa 0,0 l/m 10,2 km/h (2 Bft) N-NO 20 0 min 0 W/m 14,1 C 16,6 C 10,2 km/h (2 Bft)
18.08.2011 19:00 18,3 C 78 % 1013,5 hPa 0,0 l/m 10,3 km/h (2 Bft) NO 40 0 min 0 W/m 14,4 C 16,7 C 10,3 km/h (2 Bft)
18.08.2011 19:15 18,3 C 79 % 1012,5 hPa 0,0 l/m 9,3 km/h (2 Bft) NO 35 0 min 0 W/m 14,6 C 17,0 C 9,3 km/h (2 Bft)
18.08.2011 19:30 18,3 C 81 % 1012,5 hPa 0,0 l/m 11,0 km/h (2 Bft) N-NO 25 0 min 0 W/m 15,0 C 16,4 C 11,0 km/h (2 Bft)
18.08.2011 19:45 18,3 C 81 % 1012,5 hPa 0,0 l/m 8,0 km/h (2 Bft) NO 50 0 min 0 W/m 15,0 C 17,6 C 8,0 km/h (2 Bft)
18.08.2011 20:00 18,2 C 81 % 1012,5 hPa 0,0 l/m 6,1 km/h (2 Bft) NO 50 0 min 0 W/m 14,9 C 18,2 C 6,1 km/h (2 Bft)
18.08.2011 20:15 18,2 C 82 % 1012,5 hPa 0,0 l/m 4,5 km/h (1 Bft) NO 40 0 min 0 W/m 15,1 C 18,2 C 4,5 km/h (1 Bft)
18.08.2011 20:30 18,0 C 82 % 1012,5 hPa 0,0 l/m 4,8 km/h (1 Bft) O-SO 105 0 min 0 W/m 14,9 C 18,0 C 4,8 km/h (1 Bft)
18.08.2011 20:45 18,0 C 82 % 1012,5 hPa 0,0 l/m 7,4 km/h (2 Bft) O-SO 110 0 min 0 W/m 14,9 C 17,5 C 7,4 km/h (2 Bft)
18.08.2011 20:59 18,0 C 82 % 1012,5 hPa 0,0 l/m 0,7 km/h (0 Bft) S-SO 165 0 min 0 W/m 14,9 C 18,0 C 0,7 km/h (0 Bft)
18.08.2011 21:15 17,9 C 82 % 1012,5 hPa 0,0 l/m 4,8 km/h (1 Bft) O 80 0 min 0 W/m 14,8 C 17,9 C 4,8 km/h (1 Bft)
18.08.2011 21:29 17,8 C 83 % 1012,5 hPa 0,0 l/m 4,5 km/h (1 Bft) O 90 0 min 0 W/m 14,9 C 17,8 C 4,5 km/h (1 Bft)
18.08.2011 21:44 17,7 C 85 % 1011,5 hPa 0,0 l/m 6,7 km/h (2 Bft) SO 125 0 min 0 W/m 15,1 C 17,6 C 6,7 km/h (2 Bft)
18.08.2011 22:00 17,6 C 85 % 1011,5 hPa 0,0 l/m 10,3 km/h (2 Bft) O 95 0 min 0 W/m 15,0 C 15,9 C 10,3 km/h (2 Bft)
18.08.2011 22:14 17,5 C 85 % 1011,5 hPa 0,0 l/m 11,3 km/h (2 Bft) O-SO 115 0 min 0 W/m 14,9 C 15,4 C 11,3 km/h (2 Bft)
18.08.2011 22:30 17,5 C 85 % 1010,5 hPa 0,0 l/m 12,0 km/h (2 Bft) SO 130 0 min 0 W/m 14,9 C 15,2 C 12,0 km/h (2 Bft)
18.08.2011 22:45 17,4 C 85 % 1010,5 hPa 0,0 l/m 17,5 km/h (3 Bft) SO 145 0 min 0 W/m 14,8 C 13,4 C 17,5 km/h (3 Bft)
18.08.2011 23:00 17,3 C 85 % 1010,5 hPa 0,3 l/m 12,3 km/h (2 Bft) SO 140 0 min 0 W/m 14,8 C 14,8 C 12,3 km/h (2 Bft)
18.08.2011 23:15 17,2 C 85 % 1010,5 hPa 0,0 l/m 17,1 km/h (3 Bft) O-SO 120 0 min 0 W/m 14,7 C 13,3 C 17,1 km/h (3 Bft)
18.08.2011 23:30 17,1 C 85 % 1010,5 hPa 0,0 l/m 16,7 km/h (3 Bft) SO 135 0 min 0 W/m 14,6 C 13,3 C 16,7 km/h (3 Bft)
18.08.2011 23:45 17,0 C 86 % 1009,5 hPa 0,0 l/m 13,6 km/h (3 Bft) SO 145 0 min 0 W/m 14,6 C 14,0 C 13,6 km/h (3 Bft)
_ Min-Zeit 02:30 14:15 23:45 - 00:00 - - - - 01:30 03:30 00:00
Minimum _ 14,2 C 68 % 1009,5 hPa - 0,0 km/h (0 Bft) - - - - 11,3 C 13,2 C 0,0 km/h (0 Bft)
_ Max-Zeit 14:45 07:59 00:00 05:45 22:45 - - 00:00 00:00 21:44 14:59 22:45
Maximum _ 20,4 C 89 % 1016,5 hPa 0,3 l/m 17,5 km/h
SO (3 Bft)
- - 0 min 0 W/m 15,1 C 20,1 C 17,5 km/h
S-SO (3 Bft)
Durchschnitt _ 17,0 C 80 % 1015,1 hPa #0,6 l/m 6,0 km/h (2 Bft) NO - #0 min. 0 W/m 13,5 C 16,2 C 6,0 km/h (2 Bft)
copyright by Holger Just